Time;durP1;ratioP1;P1;durP2;ratioP2;P2;SDS_P1;SDS_P2;PMS_P1;PMS_P2;Temp;Humidity;BMP_temperature;BMP_pressure;BME280_temperature;BME280_humidity;BME280_pressure;Samples;Min_cycle;Max_cycle;Signal;HPM_P1;HPM_P2
2023/05/05 00:00:39;;;;;;;0.00;0.00;;;;;;;15.74;72.78;98742.34;4939163;28;20290;-65
2023/05/05 00:03:06;;;;;;;0.00;0.00;;;;;;;15.76;72.31;98748.25;4941895;28;20311;-65
2023/05/05 00:05:33;;;;;;;0.00;0.00;;;;;;;15.77;73.24;98749.88;4939068;28;20268;-65
2023/05/05 00:08:00;;;;;;;0.00;0.00;;;;;;;15.69;73.54;98748.19;4943192;28;20730;-65
2023/05/05 00:10:27;;;;;;;0.00;0.00;;;;;;;15.68;74.97;98740.44;4939697;28;20712;-65
2023/05/05 00:12:54;;;;;;;0.00;0.00;;;;;;;15.62;75.27;98742.81;4942381;29;20321;-65
2023/05/05 00:15:20;;;;;;;0.00;0.00;;;;;;;15.53;76.88;98737.81;4939084;28;20230;-65
2023/05/05 00:17:47;;;;;;;0.00;0.00;;;;;;;15.54;76.28;98726.28;4930761;28;20279;-65
2023/05/05 00:20:13;;;;;;;0.00;0.00;;;;;;;15.56;76.30;98729.56;4922891;29;20322;-65
2023/05/05 00:22:40;;;;;;;0.00;0.00;;;;;;;15.46;77.11;98725.38;4920163;28;20691;-65
2023/05/05 00:25:09;;;;;;;0.00;0.00;;;;;;;15.38;78.91;98722.84;4923362;29;20693;-65
2023/05/05 00:27:35;;;;;;;0.00;0.00;;;;;;;15.33;79.24;98712.03;4921084;28;20974;-65
2023/05/05 00:30:02;;;;;;;0.00;0.00;;;;;;;15.32;78.27;98716.50;4923736;29;20247;-65
2023/05/05 00:32:29;;;;;;;0.00;0.00;;;;;;;15.31;80.38;98719.28;4919524;29;20243;-65
2023/05/05 00:34:55;;;;;;;0.00;0.00;;;;;;;15.24;80.41;98734.13;4923469;28;20307;-65
2023/05/05 00:37:22;;;;;;;0.00;0.00;;;;;;;15.22;81.73;98733.50;4919246;29;20327;-65
2023/05/05 00:39:48;;;;;;;0.00;0.00;;;;;;;15.18;83.66;98733.06;4923723;29;20228;-65
2023/05/05 00:42:16;;;;;;;0.00;0.00;;;;;;;15.04;84.69;98729.38;4922651;29;20226;-65
2023/05/05 00:44:47;;;;;;;0.00;0.00;;;;;;;15.00;84.89;98735.97;4922458;29;20244;-65
2023/05/05 00:47:15;;;;;;;0.00;0.00;;;;;;;14.95;84.83;98731.25;4934126;28;20242;-65
2023/05/05 00:49:47;;;;;;;0.00;0.00;;;;;;;14.91;85.13;98727.34;4921344;29;20246;-65
2023/05/05 00:52:14;;;;;;;0.00;0.00;;;;;;;14.86;85.41;98722.63;4926617;28;20239;-65
2023/05/05 00:55:07;;;;;;;0.00;0.00;;;;;;;14.76;87.35;98737.81;4943283;28;20245;-65
2023/05/05 00:57:35;;;;;;;0.00;0.00;;;;;;;14.74;85.70;98734.56;4939658;28;20236;-65
2023/05/05 01:00:04;;;;;;;0.00;0.00;;;;;;;14.70;86.49;98728.00;4924784;29;20240;-65
2023/05/05 01:02:31;;;;;;;0.00;0.00;;;;;;;14.69;86.84;98731.59;4940417;28;20609;-65
2023/05/05 01:04:58;;;;;;;0.00;0.00;;;;;;;14.64;87.28;98734.72;4944818;28;20233;-65
2023/05/05 01:07:33;;;;;;;0.00;0.00;;;;;;;14.62;86.79;98731.47;4943354;28;20285;-65
2023/05/05 01:10:10;;;;;;;0.00;0.00;;;;;;;14.69;85.42;98739.47;4946050;28;20759;-65
2023/05/05 01:12:51;;;;;;;0.00;0.00;;;;;;;14.76;85.07;98732.56;4936114;28;20246;-65
2023/05/05 01:15:28;;;;;;;0.00;0.00;;;;;;;14.77;85.39;98736.84;4926396;28;20226;-65
2023/05/05 01:17:59;;;;;;;0.00;0.00;;;;;;;14.90;84.17;98742.28;4941427;28;20219;-65
2023/05/05 01:20:33;;;;;;;0.00;0.00;;;;;;;14.81;84.52;98737.28;4924183;28;20238;-65
2023/05/05 01:23:03;;;;;;;0.00;0.00;;;;;;;14.79;85.16;98736.63;4921337;29;20331;-65
2023/05/05 01:25:56;;;;;;;0.00;0.00;;;;;;;14.78;85.66;98738.47;4941634;28;20247;-65
2023/05/05 01:29:02;;;;;;;0.00;0.00;;;;;;;14.72;85.43;98733.91;4923193;29;20235;-65
2023/05/05 01:31:50;;;;;;;0.00;0.00;;;;;;;14.68;85.41;98750.97;4929012;28;20281;-65
2023/05/05 01:34:20;;;;;;;0.00;0.00;;;;;;;14.69;86.26;98734.22;4921761;29;20341;-65
2023/05/05 01:36:52;;;;;;;0.00;0.00;;;;;;;14.73;85.52;98746.06;4927273;28;20232;-65
2023/05/05 01:39:25;;;;;;;0.00;0.00;;;;;;;14.71;86.20;98748.84;4922991;29;20286;-65
2023/05/05 01:41:57;;;;;;;0.00;0.00;;;;;;;14.78;86.30;98751.59;4930171;28;20278;-65
2023/05/05 01:44:25;;;;;;;0.00;0.00;;;;;;;14.78;86.86;98746.34;4938673;28;20226;-65
2023/05/05 01:46:54;;;;;;;0.00;0.00;;;;;;;14.79;87.26;98748.00;4932887;28;20228;-65
2023/05/05 01:49:21;;;;;;;0.00;0.00;;;;;;;14.98;83.66;98749.31;4923294;28;20226;-65
2023/05/05 01:51:49;;;;;;;0.00;0.00;;;;;;;15.04;85.09;98753.03;4946701;28;20227;-65
2023/05/05 01:54:18;;;;;;;0.00;0.00;;;;;;;15.14;83.60;98752.81;4941408;28;20258;-65
2023/05/05 01:56:48;;;;;;;0.00;0.00;;;;;;;15.19;84.59;98755.72;4929082;29;20756;-65
2023/05/05 01:59:15;;;;;;;0.00;0.00;;;;;;;15.22;84.82;98754.53;4945022;29;20223;-65
2023/05/05 02:01:45;;;;;;;0.00;0.00;;;;;;;15.22;84.46;98755.38;4926533;29;20230;-65
2023/05/05 02:04:14;;;;;;;0.00;0.00;;;;;;;15.27;83.09;98754.81;4944550;28;20237;-65
2023/05/05 02:06:44;;;;;;;0.00;0.00;;;;;;;15.41;80.94;98753.19;4939128;28;20245;-65
2023/05/05 02:09:12;;;;;;;0.00;0.00;;;;;;;15.55;79.64;98759.50;4924913;29;20939;-65
2023/05/05 02:11:40;;;;;;;0.00;0.00;;;;;;;15.67;78.62;98765.97;4912132;29;20242;-65
2023/05/05 02:14:08;;;;;;;0.00;0.00;;;;;;;15.86;77.95;98769.84;4917106;29;20225;-65
2023/05/05 02:16:36;;;;;;;0.00;0.00;;;;;;;16.03;75.19;98769.72;4925854;28;20237;-65
2023/05/05 02:19:04;;;;;;;0.00;0.00;;;;;;;16.12;73.56;98770.41;4929427;29;20233;-65
2023/05/05 02:21:33;;;;;;;0.00;0.00;;;;;;;16.17;74.32;98773.31;4942834;28;20264;-65
2023/05/05 02:23:59;;;;;;;0.00;0.00;;;;;;;16.21;74.92;98772.78;4928529;29;20770;-65
2023/05/05 02:26:29;;;;;;;0.00;0.00;;;;;;;16.24;75.48;98774.22;4933431;28;20238;-65
2023/05/05 02:29:03;;;;;;;0.00;0.00;;;;;;;16.23;74.63;98778.69;4934535;28;20267;-65
2023/05/05 02:31:32;;;;;;;0.00;0.00;;;;;;;16.34;71.84;98779.22;4914236;28;20252;-65
2023/05/05 02:34:01;;;;;;;0.00;0.00;;;;;;;16.35;74.97;98786.91;4927676;28;20267;-65
2023/05/05 02:36:39;;;;;;;0.00;0.00;;;;;;;16.30;76.01;98773.47;4928112;28;20712;-65
2023/05/05 02:39:12;;;;;;;0.00;0.00;;;;;;;16.24;76.70;98776.84;4912834;29;20241;-65
2023/05/05 02:41:41;;;;;;;0.00;0.00;;;;;;;16.20;76.87;98775.59;4910514;28;20226;-65
2023/05/05 02:44:18;;;;;;;0.00;0.00;;;;;;;16.15;78.63;98775.31;4920805;29;20846;-65
2023/05/05 02:46:45;;;;;;;0.00;0.00;;;;;;;16.09;78.96;98775.03;4936526;28;20579;-65
2023/05/05 02:49:12;;;;;;;0.00;0.00;;;;;;;15.99;80.99;98776.34;4929791;28;20234;-65
2023/05/05 02:51:41;;;;;;;0.00;0.00;;;;;;;15.84;81.42;98768.41;4921611;28;20249;-65
2023/05/05 02:54:16;;;;;;;0.00;0.00;;;;;;;15.66;83.27;98772.22;4932559;28;20233;-65
2023/05/05 02:56:47;;;;;;;0.00;0.00;;;;;;;15.44;85.33;98772.09;4923705;29;20244;-65
2023/05/05 02:59:18;;;;;;;0.00;0.00;;;;;;;15.28;85.89;98772.25;4925847;29;20302;-65
2023/05/05 03:04:35;;;;;;;0.00;0.00;;;;;;;15.00;86.07;98770.97;5325192;23;20648;-65
2023/05/05 03:07:10;;;;;;;0.00;0.00;;;;;;;14.92;88.74;98778.94;4929979;28;20947;-65
2023/05/05 03:09:41;;;;;;;0.00;0.00;;;;;;;14.73;89.13;98774.97;4923563;28;20235;-65
2023/05/05 03:12:10;;;;;;;0.00;0.00;;;;;;;14.58;90.15;98770.41;4917273;29;20315;-65
2023/05/05 03:15:01;;;;;;;0.00;0.00;;;;;;;14.43;90.64;98782.63;4908364;29;20240;-65
2023/05/05 03:17:31;;;;;;;0.00;0.00;;;;;;;14.33;90.83;98769.69;4891607;29;20258;-65
2023/05/05 03:19:59;;;;;;;0.00;0.00;;;;;;;14.21;91.00;98765.84;4927632;29;20235;-65
2023/05/05 03:22:28;;;;;;;0.00;0.00;;;;;;;14.23;92.58;98766.50;4901533;29;20220;-65
2023/05/05 03:24:56;;;;;;;0.00;0.00;;;;;;;14.13;93.83;98766.69;4909930;29;20325;-66
2023/05/05 03:27:24;;;;;;;0.00;0.00;;;;;;;14.08;94.73;98767.22;4908233;29;20259;-66
2023/05/05 03:29:51;;;;;;;0.00;0.00;;;;;;;14.10;93.68;98762.59;4912608;29;20239;-65
2023/05/05 03:32:18;;;;;;;0.00;0.00;;;;;;;14.07;93.62;98778.69;5108039;23;20239;-65
2023/05/05 03:34:50;;;;;;;0.00;0.00;;;;;;;13.99;94.48;98781.34;4914481;29;20244;-65
2023/05/05 03:37:17;;;;;;;0.00;0.00;;;;;;;13.99;95.02;98776.09;4904947;29;20226;-65
2023/05/05 03:39:49;;;;;;;0.00;0.00;;;;;;;13.98;94.77;98777.88;4917403;29;20255;-65
2023/05/05 03:42:16;;;;;;;0.00;0.00;;;;;;;13.91;95.34;98776.13;4897349;29;20848;-65
2023/05/05 03:44:48;;;;;;;0.00;0.00;;;;;;;13.85;95.70;98785.47;4888193;29;20256;-65
2023/05/05 03:47:15;;;;;;;0.00;0.00;;;;;;;13.84;97.76;98779.41;4891773;29;20231;-65
2023/05/05 03:49:46;;;;;;;0.00;0.00;;;;;;;13.90;99.15;98783.16;4885939;29;20282;-65
2023/05/05 03:52:13;;;;;;;0.00;0.00;;;;;;;13.83;98.98;98783.03;4908743;29;20239;-65
2023/05/05 03:54:41;;;;;;;0.00;0.00;;;;;;;13.82;98.85;98791.03;4890220;29;20262;-65
2023/05/05 03:57:09;;;;;;;0.00;0.00;;;;;;;13.80;99.05;98780.72;4893966;29;20244;-65
2023/05/05 03:59:35;;;;;;;0.00;0.00;;;;;;;13.91;99.44;98790.03;4906987;29;20236;-65
2023/05/05 04:02:02;;;;;;;0.00;0.00;;;;;;;13.89;99.70;98789.38;4897371;29;20231;-65
2023/05/05 04:04:28;;;;;;;0.00;0.00;;;;;;;14.00;99.12;98794.28;4905721;29;20232;-65
2023/05/05 04:06:55;;;;;;;0.00;0.00;;;;;;;14.08;99.35;98796.06;4905191;29;20651;-65
2023/05/05 04:09:23;;;;;;;0.00;0.00;;;;;;;14.12;99.73;98788.66;4906398;29;20223;-65
2023/05/05 04:11:50;;;;;;;0.00;0.00;;;;;;;14.17;99.51;98791.59;4901482;29;20236;-65
2023/05/05 04:14:19;;;;;;;0.00;0.00;;;;;;;14.26;99.56;98792.41;4890943;29;20278;-65
2023/05/05 04:16:45;;;;;;;0.00;0.00;;;;;;;14.29;98.68;98792.06;4909120;29;20233;-65
2023/05/05 04:19:12;;;;;;;0.00;0.00;;;;;;;14.36;98.15;98798.25;4899163;29;20231;-65
2023/05/05 04:21:40;;;;;;;0.00;0.00;;;;;;;14.42;97.78;98794.13;4907222;29;20241;-65
2023/05/05 04:24:06;;;;;;;0.00;0.00;;;;;;;14.48;97.94;98796.06;4893468;29;20591;-65
2023/05/05 04:26:33;;;;;;;0.00;0.00;;;;;;;14.52;100.00;98796.53;4891336;29;20328;-65
2023/05/05 04:29:00;;;;;;;0.00;0.00;;;;;;;14.55;100.00;98794.41;4883825;29;20247;-65
2023/05/05 04:31:29;;;;;;;0.00;0.00;;;;;;;14.58;99.73;98801.94;4891440;29;20238;-65
2023/05/05 04:33:56;;;;;;;0.00;0.00;;;;;;;14.70;98.93;98807.63;4902092;29;20231;-65
2023/05/05 04:36:22;;;;;;;0.00;0.00;;;;;;;14.80;98.09;98809.22;4888340;29;20235;-65
2023/05/05 04:38:49;;;;;;;0.00;0.00;;;;;;;14.91;97.86;98807.00;4886521;29;20234;-65
2023/05/05 04:41:17;;;;;;;0.00;0.00;;;;;;;15.01;97.83;98791.03;4903225;29;20332;-65
2023/05/05 04:43:45;;;;;;;0.00;0.00;;;;;;;15.13;98.30;98801.13;4883245;29;20237;-65
2023/05/05 04:46:13;;;;;;;0.00;0.00;;;;;;;15.25;97.19;98817.28;4893389;29;20271;-65
2023/05/05 04:48:41;;;;;;;0.00;0.00;;;;;;;15.32;94.36;98818.22;4883475;29;20235;-65
2023/05/05 04:51:08;;;;;;;0.00;0.00;;;;;;;15.47;94.68;98820.88;4886014;29;20723;-65
2023/05/05 04:53:36;;;;;;;0.00;0.00;;;;;;;15.63;93.89;98819.94;4877699;29;20233;-65
2023/05/05 04:56:02;;;;;;;0.00;0.00;;;;;;;15.80;93.02;98815.31;4901091;29;20236;-65
2023/05/05 04:58:29;;;;;;;0.00;0.00;;;;;;;15.98;94.05;98815.00;4889581;29;20228;-65
2023/05/05 05:00:56;;;;;;;0.00;0.00;;;;;;;16.09;93.50;98813.75;4908405;29;20288;-65
2023/05/05 05:03:23;;;;;;;0.00;0.00;;;;;;;16.19;91.57;98816.09;4906941;29;20240;-65
2023/05/05 05:05:51;;;;;;;0.00;0.00;;;;;;;16.25;90.99;98819.81;4885692;29;20277;-66
2023/05/05 05:08:18;;;;;;;0.00;0.00;;;;;;;16.33;89.65;98819.72;4905264;29;20247;-66
2023/05/05 05:10:44;;;;;;;0.00;0.00;;;;;;;16.34;89.29;98819.53;4874005;29;20232;-66
2023/05/05 05:13:11;;;;;;;0.00;0.00;;;;;;;16.31;91.39;98825.16;4891670;29;20228;-66
2023/05/05 05:15:38;;;;;;;0.00;0.00;;;;;;;16.30;93.00;98828.78;4888986;29;20308;-66
2023/05/05 05:18:07;;;;;;;0.00;0.00;;;;;;;16.30;93.84;98828.00;4908230;29;20231;-66
2023/05/05 05:20:35;;;;;;;0.00;0.00;;;;;;;16.28;93.89;98824.72;4906641;29;20711;-66
2023/05/05 05:23:03;;;;;;;0.00;0.00;;;;;;;16.30;94.23;98828.78;4907628;29;20364;-66
2023/05/05 05:25:32;;;;;;;0.00;0.00;;;;;;;16.33;93.95;98831.06;4886968;29;20236;-66
2023/05/05 05:27:59;;;;;;;0.00;0.00;;;;;;;16.36;93.95;98837.81;4889386;29;20238;-66
2023/05/05 05:30:26;;;;;;;0.00;0.00;;;;;;;16.40;94.54;98832.97;4900906;29;20316;-66
2023/05/05 05:32:53;;;;;;;0.00;0.00;;;;;;;16.44;93.84;98828.97;4879015;29;20272;-66
2023/05/05 05:35:19;;;;;;;0.00;0.00;;;;;;;16.49;93.83;98835.31;4901709;29;20225;-66
2023/05/05 05:37:46;;;;;;;0.00;0.00;;;;;;;16.53;94.43;98839.22;4907863;29;20237;-66
2023/05/05 05:40:16;;;;;;;0.00;0.00;;;;;;;16.58;94.65;98846.56;4892035;29;20231;-66
2023/05/05 05:42:42;;;;;;;0.00;0.00;;;;;;;16.59;95.26;98831.56;4904303;29;20240;-66
2023/05/05 05:45:10;;;;;;;0.00;0.00;;;;;;;16.65;95.40;98844.84;4884918;29;20249;-66
2023/05/05 05:47:37;;;;;;;0.00;0.00;;;;;;;16.64;95.29;98834.47;4903956;29;20695;-66
2023/05/05 05:50:06;;;;;;;0.00;0.00;;;;;;;16.68;94.48;98841.00;4884845;29;20272;-66
2023/05/05 05:52:34;;;;;;;0.00;0.00;;;;;;;16.75;94.61;98839.25;4902968;29;20705;-66
2023/05/05 05:55:02;;;;;;;0.00;0.00;;;;;;;16.84;93.83;98837.34;4889917;29;20248;-66
2023/05/05 05:57:30;;;;;;;0.00;0.00;;;;;;;16.99;93.26;98852.31;4902341;29;20304;-65
2023/05/05 05:59:57;;;;;;;0.00;0.00;;;;;;;17.10;92.37;98850.00;4893402;29;20229;-65
2023/05/05 06:02:26;;;;;;;0.00;0.00;;;;;;;17.25;93.10;98842.03;4888463;29;20247;-66
2023/05/05 06:04:53;;;;;;;0.00;0.00;;;;;;;17.52;91.21;98847.53;4885745;29;20255;-66
2023/05/05 06:07:20;;;;;;;0.00;0.00;;;;;;;17.55;92.16;98839.25;4888965;29;20586;-66
2023/05/05 06:09:48;;;;;;;0.00;0.00;;;;;;;17.82;88.95;98842.09;4907344;29;20241;-66
2023/05/05 06:12:15;;;;;;;0.00;0.00;;;;;;;18.21;85.51;98849.66;4893456;29;20227;-66
2023/05/05 06:15:08;;;;;;;0.00;0.00;;;;;;;18.62;82.69;98848.00;4893075;29;20589;-66
2023/05/05 06:17:35;;;;;;;0.00;0.00;;;;;;;18.90;80.38;98847.91;4901336;29;20237;-66
2023/05/05 06:20:02;;;;;;;0.00;0.00;;;;;;;19.15;77.44;98850.81;4868335;29;20315;-66
2023/05/05 06:22:28;;;;;;;0.00;0.00;;;;;;;19.36;75.00;98856.13;4879860;29;20233;-66
2023/05/05 06:24:55;;;;;;;0.00;0.00;;;;;;;19.39;72.34;98859.19;4878924;29;20242;-66
2023/05/05 06:27:22;;;;;;;0.00;0.00;;;;;;;19.35;69.83;98865.09;4874703;29;20314;-66
2023/05/05 06:29:48;;;;;;;0.00;0.00;;;;;;;19.38;68.95;98864.69;4904461;29;20238;-66
2023/05/05 06:32:16;;;;;;;0.00;0.00;;;;;;;19.30;72.52;98871.81;4896907;29;20238;-66
2023/05/05 06:34:48;;;;;;;0.00;0.00;;;;;;;19.20;72.59;98871.38;4901180;29;20591;-66
2023/05/05 06:37:15;;;;;;;0.00;0.00;;;;;;;19.25;71.95;98866.28;4897410;29;20298;-66
2023/05/05 06:39:49;;;;;;;0.00;0.00;;;;;;;19.31;71.46;98877.91;4905838;29;20237;-66
2023/05/05 06:42:41;;;;;;;0.00;0.00;;;;;;;19.40;69.53;98876.72;4908216;29;20588;-66
2023/05/05 06:45:11;;;;;;;0.00;0.00;;;;;;;19.50;67.13;98868.34;4888415;29;20568;-66
2023/05/05 06:47:39;;;;;;;0.00;0.00;;;;;;;19.85;62.71;98867.31;4895259;29;20704;-66
2023/05/05 06:50:07;;;;;;;0.00;0.00;;;;;;;19.89;62.17;98874.69;4903419;29;20235;-66
2023/05/05 06:52:33;;;;;;;0.00;0.00;;;;;;;19.97;62.29;98881.59;4905641;29;20253;-66
2023/05/05 06:55:00;;;;;;;0.00;0.00;;;;;;;19.94;61.62;98878.56;4911898;29;20248;-66
2023/05/05 06:57:27;;;;;;;0.00;0.00;;;;;;;19.96;61.64;98890.56;4909162;29;20243;-66
2023/05/05 06:59:53;;;;;;;0.00;0.00;;;;;;;20.12;59.95;98888.53;4911668;29;20931;-66
2023/05/05 07:02:20;;;;;;;0.00;0.00;;;;;;;19.86;60.60;98880.38;4908359;29;20295;-66
2023/05/05 07:04:49;;;;;;;0.00;0.00;;;;;;;20.01;60.14;98874.06;4892991;29;20247;-66
2023/05/05 07:07:16;;;;;;;0.00;0.00;;;;;;;20.09;61.04;98876.50;4907926;29;20242;-66
2023/05/05 07:09:48;;;;;;;0.00;0.00;;;;;;;20.05;60.39;98877.94;4909170;29;20227;-66
2023/05/05 07:12:14;;;;;;;0.00;0.00;;;;;;;20.14;59.41;98871.38;4903885;29;20644;-66
2023/05/05 07:14:47;;;;;;;0.00;0.00;;;;;;;20.19;60.43;98868.13;4903995;29;20270;-66
2023/05/05 07:17:14;;;;;;;0.00;0.00;;;;;;;20.23;60.45;98871.97;4908234;29;20232;-66
2023/05/05 07:20:08;;;;;;;0.00;0.00;;;;;;;20.09;59.96;98873.88;4895800;29;20245;-66
2023/05/05 07:22:35;;;;;;;0.00;0.00;;;;;;;20.36;60.12;98868.47;4907489;29;20244;-66
2023/05/05 07:25:02;;;;;;;0.00;0.00;;;;;;;20.54;60.01;98870.47;4905573;29;20252;-66
2023/05/05 07:27:29;;;;;;;0.00;0.00;;;;;;;20.68;58.27;98871.22;4896832;29;20246;-66
2023/05/05 07:29:56;;;;;;;0.00;0.00;;;;;;;20.59;60.27;98875.97;4897719;29;20324;-66
2023/05/05 07:32:22;;;;;;;0.00;0.00;;;;;;;20.49;59.10;98876.38;4899449;29;20230;-66
2023/05/05 07:34:49;;;;;;;0.00;0.00;;;;;;;20.40;60.24;98877.63;4910579;29;20248;-66
2023/05/05 07:37:19;;;;;;;0.00;0.00;;;;;;;20.33;59.34;98868.88;4908462;29;20226;-66
2023/05/05 07:39:48;;;;;;;0.00;0.00;;;;;;;20.35;59.19;98875.63;4910817;29;20349;-66
2023/05/05 07:42:14;;;;;;;0.00;0.00;;;;;;;20.41;60.18;98876.63;4911080;29;20230;-66
2023/05/05 07:44:48;;;;;;;0.00;0.00;;;;;;;20.45;59.25;98877.81;4896149;29;20246;-66
2023/05/05 07:47:14;;;;;;;0.00;0.00;;;;;;;20.47;59.35;98872.31;4899259;29;20787;-66
2023/05/05 07:49:48;;;;;;;0.00;0.00;;;;;;;20.41;59.39;98868.66;4900828;29;20243;-66
2023/05/05 07:52:14;;;;;;;0.00;0.00;;;;;;;20.46;58.87;98860.09;4910782;29;20238;-66
2023/05/05 07:54:49;;;;;;;0.00;0.00;;;;;;;20.50;58.64;98872.72;4907531;29;20743;-66
2023/05/05 07:57:16;;;;;;;0.00;0.00;;;;;;;20.50;59.95;98871.91;4911051;29;20265;-66
2023/05/05 07:59:48;;;;;;;0.00;0.00;;;;;;;20.58;58.37;98870.84;4900252;29;20238;-66
2023/05/05 08:02:14;;;;;;;0.00;0.00;;;;;;;20.78;58.01;98870.78;4902414;29;20706;-65
2023/05/05 08:05:07;;;;;;;0.00;0.00;;;;;;;20.82;55.68;98868.53;4892663;29;20320;-66
2023/05/05 08:07:35;;;;;;;0.00;0.00;;;;;;;20.97;55.77;98868.25;4904705;29;20240;-66
2023/05/05 08:10:03;;;;;;;0.00;0.00;;;;;;;20.96;55.74;98862.13;4910092;29;20256;-66
2023/05/05 08:12:30;;;;;;;0.00;0.00;;;;;;;21.14;55.40;98863.25;4906621;29;20240;-66
2023/05/05 08:14:56;;;;;;;0.00;0.00;;;;;;;21.38;53.62;98857.16;4908694;29;20293;-66
2023/05/05 08:17:24;;;;;;;0.00;0.00;;;;;;;21.59;53.56;98859.66;4892100;29;20616;-66
2023/05/05 08:19:51;;;;;;;0.00;0.00;;;;;;;21.41;53.87;98866.53;4910582;29;20658;-66
2023/05/05 08:22:18;;;;;;;0.00;0.00;;;;;;;21.33;54.54;98856.19;4907698;29;20233;-66
2023/05/05 08:24:48;;;;;;;0.00;0.00;;;;;;;21.27;53.92;98851.72;4905184;29;20268;-66
2023/05/05 08:27:16;;;;;;;0.00;0.00;;;;;;;21.12;55.21;98849.38;4898936;29;20231;-66
2023/05/05 08:29:48;;;;;;;0.00;0.00;;;;;;;20.76;57.28;98843.63;4907589;29;20239;-66
2023/05/05 08:32:15;;;;;;;0.00;0.00;;;;;;;20.89;57.56;98840.13;4909693;29;20236;-66
2023/05/05 08:35:07;;;;;;;0.00;0.00;;;;;;;21.05;58.21;98850.25;4907477;29;20280;-66
2023/05/05 08:37:34;;;;;;;0.00;0.00;;;;;;;21.09;56.33;98850.63;4880763;29;20254;-66
2023/05/05 08:40:00;;;;;;;0.00;0.00;;;;;;;20.93;56.91;98850.09;4909786;29;20236;-66
2023/05/05 08:42:29;;;;;;;0.00;0.00;;;;;;;20.72;56.81;98855.69;4898106;29;20238;-66
2023/05/05 08:44:55;;;;;;;0.00;0.00;;;;;;;20.78;58.09;98861.00;4890896;29;20247;-66
2023/05/05 08:47:22;;;;;;;0.00;0.00;;;;;;;20.77;57.70;98854.06;4896975;29;20232;-66
2023/05/05 08:49:49;;;;;;;0.00;0.00;;;;;;;20.82;57.53;98861.38;4909780;29;20603;-66
2023/05/05 08:52:18;;;;;;;0.00;0.00;;;;;;;20.83;57.50;98856.91;4910017;29;20248;-66
2023/05/05 08:54:52;;;;;;;0.00;0.00;;;;;;;20.85;57.96;98847.69;4907382;29;20316;-66
2023/05/05 08:57:24;;;;;;;0.00;0.00;;;;;;;20.91;58.39;98846.03;4898943;29;20236;-66
2023/05/05 08:59:53;;;;;;;0.00;0.00;;;;;;;21.06;57.80;98854.53;4876334;29;20226;-65
2023/05/05 09:02:22;;;;;;;0.00;0.00;;;;;;;21.26;57.38;98852.75;4905757;29;20232;-65
2023/05/05 09:04:51;;;;;;;0.00;0.00;;;;;;;21.56;58.46;98858.25;4906795;29;20251;-65
2023/05/05 09:07:18;;;;;;;0.00;0.00;;;;;;;21.82;57.90;98859.88;4901664;29;20231;-65
2023/05/05 09:09:49;;;;;;;0.00;0.00;;;;;;;22.14;54.79;98860.81;4905614;29;20231;-65
2023/05/05 09:12:17;;;;;;;0.00;0.00;;;;;;;22.22;55.17;98850.69;4905607;29;20225;-65
2023/05/05 09:14:48;;;;;;;0.00;0.00;;;;;;;22.43;55.64;98856.59;4895783;29;20614;-65
2023/05/05 09:17:25;;;;;;;0.00;0.00;;;;;;;22.74;52.65;98856.66;4907285;29;20220;-65
2023/05/05 09:20:01;;;;;;;0.00;0.00;;;;;;;22.30;53.00;98852.25;4905467;29;20340;-65
2023/05/05 09:22:38;;;;;;;0.00;0.00;;;;;;;22.02;53.10;98853.56;4903112;29;20226;-65
2023/05/05 09:25:06;;;;;;;0.00;0.00;;;;;;;22.26;53.07;98856.38;4907741;29;20247;-65
2023/05/05 09:27:36;;;;;;;0.00;0.00;;;;;;;22.49;52.74;98857.59;4878324;29;21165;-66
2023/05/05 09:30:03;;;;;;;0.00;0.00;;;;;;;22.45;51.63;98861.72;4894758;29;20247;-64
2023/05/05 09:32:43;;;;;;;0.00;0.00;;;;;;;22.49;52.85;98861.03;4903288;29;20683;-63
2023/05/05 09:35:10;;;;;;;0.00;0.00;;;;;;;22.45;51.71;98851.88;4907802;29;20235;-64
2023/05/05 09:37:37;;;;;;;0.00;0.00;;;;;;;22.35;54.14;98846.25;4905042;29;20231;-64
2023/05/05 09:40:07;;;;;;;0.00;0.00;;;;;;;22.72;53.20;98845.44;4908214;29;20314;-64
2023/05/05 09:42:35;;;;;;;0.00;0.00;;;;;;;22.75;52.16;98840.47;4904729;29;20239;-64
2023/05/05 09:45:02;;;;;;;0.00;0.00;;;;;;;22.74;54.63;98835.38;4907883;29;20330;-56
2023/05/05 09:47:35;;;;;;;0.00;0.00;;;;;;;23.04;52.67;98834.53;4902310;29;20223;-64
2023/05/05 09:50:02;;;;;;;0.00;0.00;;;;;;;23.35;53.51;98833.47;4908175;29;20294;-64
2023/05/05 09:52:30;;;;;;;0.00;0.00;;;;;;;23.72;50.49;98835.13;4903916;29;20290;-64
2023/05/05 09:54:57;;;;;;;0.00;0.00;;;;;;;23.62;50.36;98832.22;4901990;29;20216;-64
2023/05/05 09:57:28;;;;;;;0.00;0.00;;;;;;;23.37;52.02;98841.25;4890372;29;20242;-64
2023/05/05 09:59:56;;;;;;;0.00;0.00;;;;;;;23.25;52.96;98844.69;4907763;29;20235;-64
2023/05/05 10:02:31;;;;;;;0.00;0.00;;;;;;;23.34;50.91;98841.69;4904505;29;20238;-64
2023/05/05 10:05:11;;;;;;;0.00;0.00;;;;;;;23.32;50.49;98844.56;4907750;29;20242;-64
2023/05/05 10:07:39;;;;;;;0.00;0.00;;;;;;;23.24;50.49;98848.41;4904700;29;20330;-64
2023/05/05 10:10:09;;;;;;;0.00;0.00;;;;;;;23.16;50.25;98848.69;4907170;29;20599;-64
2023/05/05 10:12:36;;;;;;;0.00;0.00;;;;;;;22.29;51.96;98841.81;4904343;29;20238;-65
2023/05/05 10:15:04;;;;;;;0.00;0.00;;;;;;;22.79;53.21;98841.63;4907093;29;20235;-64
2023/05/05 10:17:32;;;;;;;0.00;0.00;;;;;;;22.94;52.32;98843.06;4904329;29;20330;-66
2023/05/05 10:20:02;;;;;;;0.00;0.00;;;;;;;23.34;49.61;98841.69;4907405;29;20327;-66
2023/05/05 10:22:34;;;;;;;0.00;0.00;;;;;;;23.35;49.87;98838.78;4904089;29;20296;-66
2023/05/05 10:25:03;;;;;;;0.00;0.00;;;;;;;23.59;50.26;98833.50;4907434;29;20236;-66
2023/05/05 10:27:34;;;;;;;0.00;0.00;;;;;;;23.82;49.16;98837.19;4903781;29;20246;-66
2023/05/05 10:30:04;;;;;;;0.00;0.00;;;;;;;23.51;49.29;98834.66;4899694;29;20246;-66
2023/05/05 10:32:36;;;;;;;0.00;0.00;;;;;;;23.55;49.63;98829.66;4887979;29;20580;-67
2023/05/05 10:35:04;;;;;;;0.00;0.00;;;;;;;23.21;49.98;98824.06;4900052;29;20765;-67
2023/05/05 10:37:33;;;;;;;0.00;0.00;;;;;;;23.73;49.60;98826.09;4905617;29;20231;-66
2023/05/05 10:40:01;;;;;;;0.00;0.00;;;;;;;23.68;49.33;98829.44;4908327;29;20231;-66
2023/05/05 10:42:28;;;;;;;0.00;0.00;;;;;;;23.79;49.59;98824.34;4904919;29;20284;-66
2023/05/05 10:44:55;;;;;;;0.00;0.00;;;;;;;24.10;48.44;98823.16;4907409;29;20239;-66
2023/05/05 10:47:23;;;;;;;0.00;0.00;;;;;;;24.03;49.87;98815.31;4903424;29;20245;-66
2023/05/05 10:49:56;;;;;;;0.00;0.00;;;;;;;24.24;49.54;98813.06;4906531;29;20243;-67
2023/05/05 10:52:28;;;;;;;0.00;0.00;;;;;;;24.53;49.28;98807.72;4902117;29;20710;-67
2023/05/05 10:55:07;;;;;;;0.00;0.00;;;;;;;24.67;48.24;98804.78;4894059;29;20307;-68
2023/05/05 10:57:39;;;;;;;0.00;0.00;;;;;;;24.58;46.68;98805.16;4884826;29;20234;-68
2023/05/05 11:00:51;;;;;;;0.00;0.00;;;;;;;24.59;46.89;98798.78;4901844;29;20236;-68
2023/05/05 11:03:22;;;;;;;0.00;0.00;;;;;;;23.46;49.24;98785.75;4823599;29;20297;-68
2023/05/05 11:06:12;;;;;;;0.00;0.00;;;;;;;23.91;49.39;98787.00;4831062;29;20329;-68
2023/05/05 11:08:40;;;;;;;0.00;0.00;;;;;;;23.53;50.29;98786.47;4882032;29;20317;-68
2023/05/05 11:11:10;;;;;;;0.00;0.00;;;;;;;23.88;49.36;98778.44;4907459;29;20251;-68
2023/05/05 11:13:37;;;;;;;0.00;0.00;;;;;;;23.86;52.32;98779.72;4905094;29;20324;-68
2023/05/05 11:16:04;;;;;;;0.00;0.00;;;;;;;24.18;49.56;98784.66;4890054;29;20244;-68
2023/05/05 11:18:36;;;;;;;0.00;0.00;;;;;;;24.02;49.23;98783.53;4905087;29;20260;-68
2023/05/05 11:21:17;;;;;;;0.00;0.00;;;;;;;24.46;49.33;98769.69;4907630;29;20228;-68
2023/05/05 11:23:48;;;;;;;0.00;0.00;;;;;;;24.87;47.78;98770.47;4889961;29;20313;-68
2023/05/05 11:26:18;;;;;;;0.00;0.00;;;;;;;24.97;47.17;98775.16;4906916;29;20241;-68
2023/05/05 11:28:59;;;;;;;0.00;0.00;;;;;;;24.76;47.33;98769.50;4904745;29;20238;-68
2023/05/05 11:31:26;;;;;;;0.00;0.00;;;;;;;24.82;47.25;98762.38;4904664;29;20241;-69
2023/05/05 11:33:53;;;;;;;0.00;0.00;;;;;;;25.13;47.25;98756.72;4896918;29;20237;-69
2023/05/05 11:36:20;;;;;;;0.00;0.00;;;;;;;25.20;46.70;98757.34;4904549;29;20236;-69
2023/05/05 11:39:04;;;;;;;0.00;0.00;;;;;;;25.27;47.02;98750.00;4890110;29;20260;-69
2023/05/05 11:41:58;;;;;;;0.00;0.00;;;;;;;25.23;47.03;98750.72;4907896;29;20245;-69
2023/05/05 11:44:31;;;;;;;0.00;0.00;;;;;;;25.17;48.64;98747.16;4906090;29;20230;-69
2023/05/05 11:47:32;;;;;;;0.00;0.00;;;;;;;25.29;46.56;98747.09;4904959;29;20242;-69
2023/05/05 11:50:15;;;;;;;0.00;0.00;;;;;;;25.53;45.51;98750.41;4871824;29;20237;-69